sensor_id;sensor_type;location;lat;lon;timestamp;temperature;humidity
31387;DHT22;69978;50.096;8.448;2023-09-18T00:00:49;21.30;99.90
31387;DHT22;69978;50.096;8.448;2023-09-18T00:03:18;21.30;99.90
31387;DHT22;69978;50.096;8.448;2023-09-18T00:05:46;21.30;99.90
31387;DHT22;69978;50.096;8.448;2023-09-18T00:08:13;21.30;99.90
31387;DHT22;69978;50.096;8.448;2023-09-18T00:10:39;21.30;99.90
31387;DHT22;69978;50.096;8.448;2023-09-18T00:13:05;21.20;99.90
31387;DHT22;69978;50.096;8.448;2023-09-18T00:15:30;21.20;99.90
31387;DHT22;69978;50.096;8.448;2023-09-18T00:17:57;21.10;99.90
31387;DHT22;69978;50.096;8.448;2023-09-18T00:20:22;21.10;99.90
31387;DHT22;69978;50.096;8.448;2023-09-18T00:22:55;21.10;99.90
31387;DHT22;69978;50.096;8.448;2023-09-18T00:25:21;21.10;99.90
31387;DHT22;69978;50.096;8.448;2023-09-18T00:27:47;21.10;99.90
31387;DHT22;69978;50.096;8.448;2023-09-18T00:30:13;21.10;99.90
31387;DHT22;69978;50.096;8.448;2023-09-18T00:32:38;21.10;99.90
31387;DHT22;69978;50.096;8.448;2023-09-18T00:35:04;21.10;99.90
31387;DHT22;69978;50.096;8.448;2023-09-18T00:37:30;21.10;99.90
31387;DHT22;69978;50.096;8.448;2023-09-18T00:39:55;21.00;99.90
31387;DHT22;69978;50.096;8.448;2023-09-18T00:44:50;20.90;99.90
31387;DHT22;69978;50.096;8.448;2023-09-18T00:47:17;20.90;99.90
31387;DHT22;69978;50.096;8.448;2023-09-18T00:49:45;20.90;99.90
31387;DHT22;69978;50.096;8.448;2023-09-18T00:52:12;20.90;99.90
31387;DHT22;69978;50.096;8.448;2023-09-18T00:54:40;20.90;99.90
31387;DHT22;69978;50.096;8.448;2023-09-18T00:57:06;20.80;99.90
31387;DHT22;69978;50.096;8.448;2023-09-18T00:59:33;20.80;99.90
31387;DHT22;69978;50.096;8.448;2023-09-18T01:01:59;20.80;99.90
31387;DHT22;69978;50.096;8.448;2023-09-18T01:04:27;20.90;99.90
31387;DHT22;69978;50.096;8.448;2023-09-18T01:06:54;20.90;99.90
31387;DHT22;69978;50.096;8.448;2023-09-18T01:09:22;20.90;99.90
31387;DHT22;69978;50.096;8.448;2023-09-18T01:16:57;20.90;99.90
31387;DHT22;69978;50.096;8.448;2023-09-18T01:22:06;20.90;99.90
31387;DHT22;69978;50.096;8.448;2023-09-18T01:24:36;20.90;99.90
31387;DHT22;69978;50.096;8.448;2023-09-18T01:27:03;20.90;99.90
31387;DHT22;69978;50.096;8.448;2023-09-18T01:29:31;21.00;99.90
31387;DHT22;69978;50.096;8.448;2023-09-18T01:31:56;21.00;99.90
31387;DHT22;69978;50.096;8.448;2023-09-18T01:34:27;21.00;99.90
31387;DHT22;69978;50.096;8.448;2023-09-18T01:36:55;21.00;99.90
31387;DHT22;69978;50.096;8.448;2023-09-18T01:39:22;21.00;99.90
31387;DHT22;69978;50.096;8.448;2023-09-18T01:41:50;20.90;99.90
31387;DHT22;69978;50.096;8.448;2023-09-18T01:44:15;20.90;99.90
31387;DHT22;69978;50.096;8.448;2023-09-18T01:46:43;20.90;99.90
31387;DHT22;69978;50.096;8.448;2023-09-18T01:49:09;20.90;99.90
31387;DHT22;69978;50.096;8.448;2023-09-18T01:51:35;21.00;99.90
31387;DHT22;69978;50.096;8.448;2023-09-18T01:54:01;20.90;99.90
31387;DHT22;69978;50.096;8.448;2023-09-18T01:56:26;20.90;99.90
31387;DHT22;69978;50.096;8.448;2023-09-18T01:58:52;21.00;99.90
31387;DHT22;69978;50.096;8.448;2023-09-18T02:01:18;21.00;99.90
31387;DHT22;69978;50.096;8.448;2023-09-18T02:03:43;21.00;99.90
31387;DHT22;69978;50.096;8.448;2023-09-18T02:06:11;21.00;99.90
31387;DHT22;69978;50.096;8.448;2023-09-18T02:08:37;21.10;99.90
31387;DHT22;69978;50.096;8.448;2023-09-18T02:11:02;21.10;99.90
31387;DHT22;69978;50.096;8.448;2023-09-18T02:13:30;21.10;99.90
31387;DHT22;69978;50.096;8.448;2023-09-18T02:15:56;21.30;99.90
31387;DHT22;69978;50.096;8.448;2023-09-18T02:18:22;21.20;99.90
31387;DHT22;69978;50.096;8.448;2023-09-18T02:20:47;21.10;99.90
31387;DHT22;69978;50.096;8.448;2023-09-18T02:23:17;21.00;99.90
31387;DHT22;69978;50.096;8.448;2023-09-18T02:25:44;20.90;99.90
31387;DHT22;69978;50.096;8.448;2023-09-18T02:28:09;20.80;99.90
31387;DHT22;69978;50.096;8.448;2023-09-18T02:30:35;20.80;99.90
31387;DHT22;69978;50.096;8.448;2023-09-18T02:33:01;20.80;99.90
31387;DHT22;69978;50.096;8.448;2023-09-18T02:35:29;20.70;99.90
31387;DHT22;69978;50.096;8.448;2023-09-18T02:37:55;20.70;99.90
31387;DHT22;69978;50.096;8.448;2023-09-18T02:40:20;20.60;99.90
31387;DHT22;69978;50.096;8.448;2023-09-18T02:42:46;20.50;99.90
31387;DHT22;69978;50.096;8.448;2023-09-18T02:45:11;20.50;99.90
31387;DHT22;69978;50.096;8.448;2023-09-18T02:47:37;20.50;99.90
31387;DHT22;69978;50.096;8.448;2023-09-18T02:50:06;20.50;99.90
31387;DHT22;69978;50.096;8.448;2023-09-18T02:52:32;20.40;99.90
31387;DHT22;69978;50.096;8.448;2023-09-18T02:54:58;20.40;99.90
31387;DHT22;69978;50.096;8.448;2023-09-18T02:57:23;20.40;99.90
31387;DHT22;69978;50.096;8.448;2023-09-18T02:59:49;20.40;99.90
31387;DHT22;69978;50.096;8.448;2023-09-18T03:02:14;20.30;99.90
31387;DHT22;69978;50.096;8.448;2023-09-18T03:04:40;20.20;99.90
31387;DHT22;69978;50.096;8.448;2023-09-18T03:07:05;20.20;99.90
31387;DHT22;69978;50.096;8.448;2023-09-18T03:09:31;20.10;99.90
31387;DHT22;69978;50.096;8.448;2023-09-18T03:11:57;20.10;99.90
31387;DHT22;69978;50.096;8.448;2023-09-18T03:14:22;20.00;99.90
31387;DHT22;69978;50.096;8.448;2023-09-18T03:16:48;20.00;99.90
31387;DHT22;69978;50.096;8.448;2023-09-18T03:19:13;20.00;99.90
31387;DHT22;69978;50.096;8.448;2023-09-18T03:21:39;20.00;99.90
31387;DHT22;69978;50.096;8.448;2023-09-18T03:24:05;19.90;99.90
31387;DHT22;69978;50.096;8.448;2023-09-18T03:26:30;19.80;99.90
31387;DHT22;69978;50.096;8.448;2023-09-18T03:28:57;19.90;99.90
31387;DHT22;69978;50.096;8.448;2023-09-18T03:31:23;19.90;99.90
31387;DHT22;69978;50.096;8.448;2023-09-18T03:33:48;19.90;99.90
31387;DHT22;69978;50.096;8.448;2023-09-18T03:36:14;19.90;99.90
31387;DHT22;69978;50.096;8.448;2023-09-18T03:38:40;19.80;99.90
31387;DHT22;69978;50.096;8.448;2023-09-18T03:41:05;19.80;99.90
31387;DHT22;69978;50.096;8.448;2023-09-18T03:43:31;19.80;99.90
31387;DHT22;69978;50.096;8.448;2023-09-18T03:46:07;19.80;99.90
31387;DHT22;69978;50.096;8.448;2023-09-18T03:48:33;19.80;99.90
31387;DHT22;69978;50.096;8.448;2023-09-18T03:51:04;19.80;99.90
31387;DHT22;69978;50.096;8.448;2023-09-18T03:53:31;19.80;99.90
31387;DHT22;69978;50.096;8.448;2023-09-18T03:55:57;19.70;99.90
31387;DHT22;69978;50.096;8.448;2023-09-18T03:58:22;19.80;99.90
31387;DHT22;69978;50.096;8.448;2023-09-18T04:00:48;19.80;99.90
31387;DHT22;69978;50.096;8.448;2023-09-18T04:03:14;19.80;99.90
31387;DHT22;69978;50.096;8.448;2023-09-18T04:05:40;19.70;99.90
31387;DHT22;69978;50.096;8.448;2023-09-18T04:08:06;19.70;99.90
31387;DHT22;69978;50.096;8.448;2023-09-18T04:10:31;19.80;99.90
31387;DHT22;69978;50.096;8.448;2023-09-18T04:12:58;19.90;99.90
31387;DHT22;69978;50.096;8.448;2023-09-18T04:15:24;19.90;99.90
31387;DHT22;69978;50.096;8.448;2023-09-18T04:17:50;20.00;99.90
31387;DHT22;69978;50.096;8.448;2023-09-18T04:20:16;20.00;99.90
31387;DHT22;69978;50.096;8.448;2023-09-18T04:22:44;20.00;99.90
31387;DHT22;69978;50.096;8.448;2023-09-18T04:25:11;19.90;99.90
31387;DHT22;69978;50.096;8.448;2023-09-18T04:27:36;19.90;99.90
31387;DHT22;69978;50.096;8.448;2023-09-18T04:30:02;20.00;99.90
31387;DHT22;69978;50.096;8.448;2023-09-18T04:32:28;20.00;99.90
31387;DHT22;69978;50.096;8.448;2023-09-18T04:34:54;20.00;99.90
31387;DHT22;69978;50.096;8.448;2023-09-18T04:37:20;19.90;99.90
31387;DHT22;69978;50.096;8.448;2023-09-18T04:39:46;19.90;99.90
31387;DHT22;69978;50.096;8.448;2023-09-18T04:42:12;19.90;99.90
31387;DHT22;69978;50.096;8.448;2023-09-18T04:44:37;19.90;99.90
31387;DHT22;69978;50.096;8.448;2023-09-18T04:47:03;19.90;99.90
31387;DHT22;69978;50.096;8.448;2023-09-18T04:49:30;19.90;99.90
31387;DHT22;69978;50.096;8.448;2023-09-18T04:51:55;19.90;99.90
31387;DHT22;69978;50.096;8.448;2023-09-18T04:54:21;19.90;99.90
31387;DHT22;69978;50.096;8.448;2023-09-18T04:56:47;19.90;99.90
31387;DHT22;69978;50.096;8.448;2023-09-18T04:59:12;19.80;99.90
31387;DHT22;69978;50.096;8.448;2023-09-18T05:01:38;19.70;99.90
31387;DHT22;69978;50.096;8.448;2023-09-18T05:04:05;19.70;99.90
31387;DHT22;69978;50.096;8.448;2023-09-18T05:06:30;19.70;99.90
31387;DHT22;69978;50.096;8.448;2023-09-18T05:08:56;19.70;99.90
31387;DHT22;69978;50.096;8.448;2023-09-18T05:11:22;19.70;99.90
31387;DHT22;69978;50.096;8.448;2023-09-18T05:13:48;19.70;99.90
31387;DHT22;69978;50.096;8.448;2023-09-18T05:16:16;19.70;99.90
31387;DHT22;69978;50.096;8.448;2023-09-18T05:18:41;19.70;99.90
31387;DHT22;69978;50.096;8.448;2023-09-18T05:21:08;19.80;99.90
31387;DHT22;69978;50.096;8.448;2023-09-18T05:23:34;19.80;99.90
31387;DHT22;69978;50.096;8.448;2023-09-18T05:26:00;19.80;99.90
31387;DHT22;69978;50.096;8.448;2023-09-18T05:28:25;19.80;99.90
31387;DHT22;69978;50.096;8.448;2023-09-18T05:30:51;19.80;99.90
31387;DHT22;69978;50.096;8.448;2023-09-18T05:33:18;19.90;99.90
31387;DHT22;69978;50.096;8.448;2023-09-18T05:35:45;20.00;99.90
31387;DHT22;69978;50.096;8.448;2023-09-18T05:38:11;20.00;99.90
31387;DHT22;69978;50.096;8.448;2023-09-18T05:40:39;20.00;99.90
31387;DHT22;69978;50.096;8.448;2023-09-18T05:43:05;20.10;99.90
31387;DHT22;69978;50.096;8.448;2023-09-18T05:45:31;20.00;99.90
31387;DHT22;69978;50.096;8.448;2023-09-18T05:47:57;20.00;99.90
31387;DHT22;69978;50.096;8.448;2023-09-18T05:50:29;20.00;99.90
31387;DHT22;69978;50.096;8.448;2023-09-18T05:52:57;20.00;99.90
31387;DHT22;69978;50.096;8.448;2023-09-18T05:55:28;20.00;99.90
31387;DHT22;69978;50.096;8.448;2023-09-18T05:57:54;20.00;99.90
31387;DHT22;69978;50.096;8.448;2023-09-18T06:00:20;20.00;99.90
31387;DHT22;69978;50.096;8.448;2023-09-18T06:02:47;20.00;99.90
31387;DHT22;69978;50.096;8.448;2023-09-18T06:05:13;20.00;99.90
31387;DHT22;69978;50.096;8.448;2023-09-18T06:07:41;20.00;99.90
31387;DHT22;69978;50.096;8.448;2023-09-18T06:10:07;19.90;99.90
31387;DHT22;69978;50.096;8.448;2023-09-18T06:12:33;19.90;99.90
31387;DHT22;69978;50.096;8.448;2023-09-18T06:14:59;19.80;99.90
31387;DHT22;69978;50.096;8.448;2023-09-18T06:17:24;19.80;99.90
31387;DHT22;69978;50.096;8.448;2023-09-18T06:19:50;19.80;99.90
31387;DHT22;69978;50.096;8.448;2023-09-18T06:22:16;19.90;99.90
31387;DHT22;69978;50.096;8.448;2023-09-18T06:24:42;19.90;99.90
31387;DHT22;69978;50.096;8.448;2023-09-18T06:27:08;20.00;99.90
31387;DHT22;69978;50.096;8.448;2023-09-18T06:29:34;20.00;99.90
31387;DHT22;69978;50.096;8.448;2023-09-18T06:32:00;19.90;99.90
31387;DHT22;69978;50.096;8.448;2023-09-18T06:34:27;19.90;99.90
31387;DHT22;69978;50.096;8.448;2023-09-18T06:36:56;19.90;99.90
31387;DHT22;69978;50.096;8.448;2023-09-18T06:39:21;19.90;99.90
31387;DHT22;69978;50.096;8.448;2023-09-18T06:41:49;19.90;99.90
31387;DHT22;69978;50.096;8.448;2023-09-18T06:44:14;20.00;99.90
31387;DHT22;69978;50.096;8.448;2023-09-18T06:46:41;19.90;99.90
31387;DHT22;69978;50.096;8.448;2023-09-18T06:49:06;20.00;99.90
31387;DHT22;69978;50.096;8.448;2023-09-18T06:51:32;20.00;99.90
31387;DHT22;69978;50.096;8.448;2023-09-18T06:53:57;20.00;99.90
31387;DHT22;69978;50.096;8.448;2023-09-18T06:56:24;20.00;99.90
31387;DHT22;69978;50.096;8.448;2023-09-18T06:58:50;20.00;99.90
31387;DHT22;69978;50.096;8.448;2023-09-18T07:01:19;20.00;99.90
31387;DHT22;69978;50.096;8.448;2023-09-18T07:03:46;20.00;99.90
31387;DHT22;69978;50.096;8.448;2023-09-18T07:06:15;20.00;99.90
31387;DHT22;69978;50.096;8.448;2023-09-18T07:08:44;20.00;99.90
31387;DHT22;69978;50.096;8.448;2023-09-18T07:11:10;20.00;99.90
31387;DHT22;69978;50.096;8.448;2023-09-18T07:13:40;19.90;99.90
31387;DHT22;69978;50.096;8.448;2023-09-18T07:16:09;19.90;99.90
31387;DHT22;69978;50.096;8.448;2023-09-18T07:18:35;19.90;99.90
31387;DHT22;69978;50.096;8.448;2023-09-18T07:21:00;19.90;99.90
31387;DHT22;69978;50.096;8.448;2023-09-18T07:23:26;19.90;99.90
31387;DHT22;69978;50.096;8.448;2023-09-18T07:25:52;19.90;99.90
31387;DHT22;69978;50.096;8.448;2023-09-18T07:28:17;19.80;99.90
31387;DHT22;69978;50.096;8.448;2023-09-18T07:30:44;19.80;99.90
31387;DHT22;69978;50.096;8.448;2023-09-18T07:33:11;19.80;99.90
31387;DHT22;69978;50.096;8.448;2023-09-18T07:35:37;19.80;99.90
31387;DHT22;69978;50.096;8.448;2023-09-18T07:38:03;19.90;99.90
31387;DHT22;69978;50.096;8.448;2023-09-18T07:40:31;19.80;99.90
31387;DHT22;69978;50.096;8.448;2023-09-18T07:42:57;19.90;99.90
31387;DHT22;69978;50.096;8.448;2023-09-18T07:45:25;19.90;99.90
31387;DHT22;69978;50.096;8.448;2023-09-18T07:47:51;20.00;99.90
31387;DHT22;69978;50.096;8.448;2023-09-18T07:50:16;20.00;99.90
31387;DHT22;69978;50.096;8.448;2023-09-18T07:52:43;20.00;99.90
31387;DHT22;69978;50.096;8.448;2023-09-18T07:55:09;20.00;99.90
31387;DHT22;69978;50.096;8.448;2023-09-18T07:57:35;20.00;99.90
31387;DHT22;69978;50.096;8.448;2023-09-18T08:00:02;20.10;99.90
31387;DHT22;69978;50.096;8.448;2023-09-18T08:02:33;20.10;99.90
31387;DHT22;69978;50.096;8.448;2023-09-18T08:05:00;20.10;99.90
31387;DHT22;69978;50.096;8.448;2023-09-18T08:07:27;20.20;99.90
31387;DHT22;69978;50.096;8.448;2023-09-18T08:09:53;20.40;99.90
31387;DHT22;69978;50.096;8.448;2023-09-18T08:12:19;20.50;99.90
31387;DHT22;69978;50.096;8.448;2023-09-18T08:14:44;20.70;99.90
31387;DHT22;69978;50.096;8.448;2023-09-18T08:17:10;20.80;99.90
31387;DHT22;69978;50.096;8.448;2023-09-18T08:19:36;20.80;99.90
31387;DHT22;69978;50.096;8.448;2023-09-18T08:22:04;21.00;99.90
31387;DHT22;69978;50.096;8.448;2023-09-18T08:24:29;21.10;99.90
31387;DHT22;69978;50.096;8.448;2023-09-18T08:26:55;21.10;99.90
31387;DHT22;69978;50.096;8.448;2023-09-18T08:29:22;21.00;99.90
31387;DHT22;69978;50.096;8.448;2023-09-18T08:31:48;20.90;99.90
31387;DHT22;69978;50.096;8.448;2023-09-18T08:34:14;21.10;99.90
31387;DHT22;69978;50.096;8.448;2023-09-18T08:36:40;21.20;99.90
31387;DHT22;69978;50.096;8.448;2023-09-18T08:39:06;21.20;99.90
31387;DHT22;69978;50.096;8.448;2023-09-18T08:41:32;21.20;99.90
31387;DHT22;69978;50.096;8.448;2023-09-18T08:44:03;21.20;99.90
31387;DHT22;69978;50.096;8.448;2023-09-18T08:46:29;21.20;99.90
31387;DHT22;69978;50.096;8.448;2023-09-18T08:48:57;21.20;99.90
31387;DHT22;69978;50.096;8.448;2023-09-18T08:51:22;21.20;99.90
31387;DHT22;69978;50.096;8.448;2023-09-18T08:53:48;21.20;99.90
31387;DHT22;69978;50.096;8.448;2023-09-18T08:56:15;21.20;99.90
31387;DHT22;69978;50.096;8.448;2023-09-18T08:58:43;21.20;99.90
31387;DHT22;69978;50.096;8.448;2023-09-18T09:01:09;21.10;99.90
31387;DHT22;69978;50.096;8.448;2023-09-18T09:03:37;21.10;99.90
31387;DHT22;69978;50.096;8.448;2023-09-18T09:06:04;21.10;99.90
31387;DHT22;69978;50.096;8.448;2023-09-18T09:08:30;21.00;99.90
31387;DHT22;69978;50.096;8.448;2023-09-18T09:10:55;21.00;99.90
31387;DHT22;69978;50.096;8.448;2023-09-18T09:13:23;21.00;99.90
31387;DHT22;69978;50.096;8.448;2023-09-18T09:15:53;21.00;99.90
31387;DHT22;69978;50.096;8.448;2023-09-18T09:18:21;20.90;99.90
31387;DHT22;69978;50.096;8.448;2023-09-18T09:20:59;20.80;99.90
31387;DHT22;69978;50.096;8.448;2023-09-18T09:23:29;20.90;99.90
31387;DHT22;69978;50.096;8.448;2023-09-18T09:26:15;20.90;99.90
31387;DHT22;69978;50.096;8.448;2023-09-18T09:28:42;21.00;99.90
31387;DHT22;69978;50.096;8.448;2023-09-18T09:31:09;21.00;99.90
31387;DHT22;69978;50.096;8.448;2023-09-18T09:33:36;21.00;99.90
31387;DHT22;69978;50.096;8.448;2023-09-18T09:36:05;21.00;99.90
31387;DHT22;69978;50.096;8.448;2023-09-18T09:38:32;21.10;99.90
31387;DHT22;69978;50.096;8.448;2023-09-18T09:41:01;21.10;99.90
31387;DHT22;69978;50.096;8.448;2023-09-18T09:43:29;21.10;99.90
31387;DHT22;69978;50.096;8.448;2023-09-18T09:46:02;21.20;99.90
31387;DHT22;69978;50.096;8.448;2023-09-18T09:48:28;21.20;99.90
31387;DHT22;69978;50.096;8.448;2023-09-18T09:51:00;21.20;99.90
31387;DHT22;69978;50.096;8.448;2023-09-18T09:53:43;21.20;99.90
31387;DHT22;69978;50.096;8.448;2023-09-18T09:56:10;21.20;99.90
31387;DHT22;69978;50.096;8.448;2023-09-18T09:58:36;21.20;99.90
31387;DHT22;69978;50.096;8.448;2023-09-18T10:01:06;21.20;99.90
31387;DHT22;69978;50.096;8.448;2023-09-18T10:03:38;21.20;99.90
31387;DHT22;69978;50.096;8.448;2023-09-18T10:06:04;21.20;99.90
31387;DHT22;69978;50.096;8.448;2023-09-18T10:08:31;21.20;99.90
31387;DHT22;69978;50.096;8.448;2023-09-18T10:11:17;21.30;99.90
31387;DHT22;69978;50.096;8.448;2023-09-18T10:13:47;21.30;99.90
31387;DHT22;69978;50.096;8.448;2023-09-18T10:16:18;21.40;99.90
31387;DHT22;69978;50.096;8.448;2023-09-18T10:21:57;21.50;99.90
31387;DHT22;69978;50.096;8.448;2023-09-18T10:24:28;21.50;99.90
31387;DHT22;69978;50.096;8.448;2023-09-18T10:27:00;21.50;99.90
31387;DHT22;69978;50.096;8.448;2023-09-18T10:29:26;21.60;99.90
31387;DHT22;69978;50.096;8.448;2023-09-18T10:31:53;21.50;99.90
31387;DHT22;69978;50.096;8.448;2023-09-18T10:34:20;21.50;99.90
31387;DHT22;69978;50.096;8.448;2023-09-18T10:36:50;21.50;99.90
31387;DHT22;69978;50.096;8.448;2023-09-18T10:39:16;21.40;99.90
31387;DHT22;69978;50.096;8.448;2023-09-18T10:41:51;21.50;99.90
31387;DHT22;69978;50.096;8.448;2023-09-18T10:44:17;21.50;99.90
31387;DHT22;69978;50.096;8.448;2023-09-18T10:46:48;21.50;99.90
31387;DHT22;69978;50.096;8.448;2023-09-18T10:49:16;21.40;99.90
31387;DHT22;69978;50.096;8.448;2023-09-18T10:51:42;21.40;99.90
31387;DHT22;69978;50.096;8.448;2023-09-18T10:54:15;21.40;99.90
31387;DHT22;69978;50.096;8.448;2023-09-18T10:56:44;21.40;99.90
31387;DHT22;69978;50.096;8.448;2023-09-18T10:59:10;21.40;99.90
31387;DHT22;69978;50.096;8.448;2023-09-18T11:01:38;21.50;99.90
31387;DHT22;69978;50.096;8.448;2023-09-18T11:04:06;21.60;99.90
31387;DHT22;69978;50.096;8.448;2023-09-18T11:09:21;21.50;99.90
31387;DHT22;69978;50.096;8.448;2023-09-18T11:11:51;21.50;99.90
31387;DHT22;69978;50.096;8.448;2023-09-18T11:14:17;21.50;99.90
31387;DHT22;69978;50.096;8.448;2023-09-18T11:16:43;21.50;99.90
31387;DHT22;69978;50.096;8.448;2023-09-18T11:19:11;21.60;99.90
31387;DHT22;69978;50.096;8.448;2023-09-18T11:21:37;21.70;99.90
31387;DHT22;69978;50.096;8.448;2023-09-18T11:24:08;21.70;99.90
31387;DHT22;69978;50.096;8.448;2023-09-18T11:26:42;21.70;99.90
31387;DHT22;69978;50.096;8.448;2023-09-18T11:29:13;21.60;99.90
31387;DHT22;69978;50.096;8.448;2023-09-18T11:31:56;21.70;99.90
31387;DHT22;69978;50.096;8.448;2023-09-18T11:34:24;21.60;99.90
31387;DHT22;69978;50.096;8.448;2023-09-18T11:36:52;21.70;99.90
31387;DHT22;69978;50.096;8.448;2023-09-18T11:42:10;21.80;99.90
31387;DHT22;69978;50.096;8.448;2023-09-18T11:44:36;21.80;99.90
31387;DHT22;69978;50.096;8.448;2023-09-18T11:47:08;21.80;99.90
31387;DHT22;69978;50.096;8.448;2023-09-18T11:49:38;21.90;99.90
31387;DHT22;69978;50.096;8.448;2023-09-18T11:52:07;21.90;99.90
31387;DHT22;69978;50.096;8.448;2023-09-18T11:54:33;22.00;99.90
31387;DHT22;69978;50.096;8.448;2023-09-18T11:57:03;22.10;99.90
31387;DHT22;69978;50.096;8.448;2023-09-18T11:59:37;22.10;99.90
31387;DHT22;69978;50.096;8.448;2023-09-18T12:02:03;22.20;99.90
31387;DHT22;69978;50.096;8.448;2023-09-18T12:04:32;22.20;99.90
31387;DHT22;69978;50.096;8.448;2023-09-18T12:06:58;22.20;99.90
31387;DHT22;69978;50.096;8.448;2023-09-18T12:09:27;22.20;99.90
31387;DHT22;69978;50.096;8.448;2023-09-18T12:11:52;22.20;99.90
31387;DHT22;69978;50.096;8.448;2023-09-18T12:14:21;22.20;99.90
31387;DHT22;69978;50.096;8.448;2023-09-18T12:16:47;22.20;99.90
31387;DHT22;69978;50.096;8.448;2023-09-18T12:19:18;22.10;99.90
31387;DHT22;69978;50.096;8.448;2023-09-18T12:21:46;22.10;99.90
31387;DHT22;69978;50.096;8.448;2023-09-18T12:24:24;22.20;99.90
31387;DHT22;69978;50.096;8.448;2023-09-18T12:26:54;22.30;99.90
31387;DHT22;69978;50.096;8.448;2023-09-18T12:29:23;22.50;99.90
31387;DHT22;69978;50.096;8.448;2023-09-18T12:31:49;22.70;99.90
31387;DHT22;69978;50.096;8.448;2023-09-18T12:34:19;22.90;99.90
31387;DHT22;69978;50.096;8.448;2023-09-18T12:36:49;23.00;99.90
31387;DHT22;69978;50.096;8.448;2023-09-18T12:39:16;23.20;99.90
31387;DHT22;69978;50.096;8.448;2023-09-18T12:41:46;23.50;99.90
31387;DHT22;69978;50.096;8.448;2023-09-18T12:44:12;23.70;99.90
31387;DHT22;69978;50.096;8.448;2023-09-18T12:46:40;23.90;99.90
31387;DHT22;69978;50.096;8.448;2023-09-18T12:49:23;23.90;99.90
31387;DHT22;69978;50.096;8.448;2023-09-18T12:52:01;23.90;99.90
31387;DHT22;69978;50.096;8.448;2023-09-18T12:54:56;23.90;99.90
31387;DHT22;69978;50.096;8.448;2023-09-18T12:57:23;23.90;99.90
31387;DHT22;69978;50.096;8.448;2023-09-18T12:59:48;23.90;99.90
31387;DHT22;69978;50.096;8.448;2023-09-18T13:02:19;23.90;99.90
31387;DHT22;69978;50.096;8.448;2023-09-18T13:04:55;23.90;99.90
31387;DHT22;69978;50.096;8.448;2023-09-18T13:07:22;23.80;99.90
31387;DHT22;69978;50.096;8.448;2023-09-18T13:10:09;23.80;99.90
31387;DHT22;69978;50.096;8.448;2023-09-18T13:12:48;23.70;99.90
31387;DHT22;69978;50.096;8.448;2023-09-18T13:15:33;23.80;99.90
31387;DHT22;69978;50.096;8.448;2023-09-18T13:18:00;23.80;99.90
31387;DHT22;69978;50.096;8.448;2023-09-18T13:20:29;23.90;99.90
31387;DHT22;69978;50.096;8.448;2023-09-18T13:22:58;23.90;99.90
31387;DHT22;69978;50.096;8.448;2023-09-18T13:25:38;23.80;99.90
31387;DHT22;69978;50.096;8.448;2023-09-18T13:28:07;23.80;99.90
31387;DHT22;69978;50.096;8.448;2023-09-18T13:30:36;23.90;99.90
31387;DHT22;69978;50.096;8.448;2023-09-18T13:35:41;23.80;99.90
31387;DHT22;69978;50.096;8.448;2023-09-18T13:38:07;23.80;99.90
31387;DHT22;69978;50.096;8.448;2023-09-18T13:40:35;23.70;99.90
31387;DHT22;69978;50.096;8.448;2023-09-18T13:43:04;23.60;99.90
31387;DHT22;69978;50.096;8.448;2023-09-18T13:45:31;23.60;99.90
31387;DHT22;69978;50.096;8.448;2023-09-18T13:47:56;23.50;99.90
31387;DHT22;69978;50.096;8.448;2023-09-18T13:50:22;23.50;99.90
31387;DHT22;69978;50.096;8.448;2023-09-18T13:52:48;23.60;99.90
31387;DHT22;69978;50.096;8.448;2023-09-18T13:55:13;23.60;99.90
31387;DHT22;69978;50.096;8.448;2023-09-18T13:57:39;23.60;99.90
31387;DHT22;69978;50.096;8.448;2023-09-18T14:00:08;23.60;99.90
31387;DHT22;69978;50.096;8.448;2023-09-18T14:02:38;23.60;99.90
31387;DHT22;69978;50.096;8.448;2023-09-18T14:05:04;23.50;99.90
31387;DHT22;69978;50.096;8.448;2023-09-18T14:07:30;23.50;99.90
31387;DHT22;69978;50.096;8.448;2023-09-18T14:09:55;23.50;99.90
31387;DHT22;69978;50.096;8.448;2023-09-18T14:12:22;23.60;99.90
31387;DHT22;69978;50.096;8.448;2023-09-18T14:14:48;23.70;99.90
31387;DHT22;69978;50.096;8.448;2023-09-18T14:17:14;23.80;99.90
31387;DHT22;69978;50.096;8.448;2023-09-18T14:19:43;23.80;99.90
31387;DHT22;69978;50.096;8.448;2023-09-18T14:22:09;23.90;99.90
31387;DHT22;69978;50.096;8.448;2023-09-18T14:24:35;24.00;99.90
31387;DHT22;69978;50.096;8.448;2023-09-18T14:27:01;24.00;99.90
31387;DHT22;69978;50.096;8.448;2023-09-18T14:29:27;24.10;99.90
31387;DHT22;69978;50.096;8.448;2023-09-18T14:31:53;24.10;99.90
31387;DHT22;69978;50.096;8.448;2023-09-18T14:34:19;24.20;99.90
31387;DHT22;69978;50.096;8.448;2023-09-18T14:36:45;24.20;99.90
31387;DHT22;69978;50.096;8.448;2023-09-18T14:39:11;24.20;99.90
31387;DHT22;69978;50.096;8.448;2023-09-18T14:41:37;24.20;99.90
31387;DHT22;69978;50.096;8.448;2023-09-18T14:44:07;24.10;99.90
31387;DHT22;69978;50.096;8.448;2023-09-18T14:46:34;24.20;99.90
31387;DHT22;69978;50.096;8.448;2023-09-18T14:49:01;24.10;99.90
31387;DHT22;69978;50.096;8.448;2023-09-18T14:51:27;24.00;99.90
31387;DHT22;69978;50.096;8.448;2023-09-18T14:53:56;23.80;99.90
31387;DHT22;69978;50.096;8.448;2023-09-18T14:56:22;23.80;99.90
31387;DHT22;69978;50.096;8.448;2023-09-18T14:58:47;23.80;99.90
31387;DHT22;69978;50.096;8.448;2023-09-18T15:01:13;23.80;99.90
31387;DHT22;69978;50.096;8.448;2023-09-18T15:03:40;23.80;99.90
31387;DHT22;69978;50.096;8.448;2023-09-18T15:06:06;23.80;99.90
31387;DHT22;69978;50.096;8.448;2023-09-18T15:08:33;23.90;99.90
31387;DHT22;69978;50.096;8.448;2023-09-18T15:10:59;23.90;99.90
31387;DHT22;69978;50.096;8.448;2023-09-18T15:13:24;23.90;99.90
31387;DHT22;69978;50.096;8.448;2023-09-18T15:15:50;24.00;99.90
31387;DHT22;69978;50.096;8.448;2023-09-18T15:18:16;23.90;99.90
31387;DHT22;69978;50.096;8.448;2023-09-18T15:20:42;23.80;99.90
31387;DHT22;69978;50.096;8.448;2023-09-18T15:23:07;23.70;99.90
31387;DHT22;69978;50.096;8.448;2023-09-18T15:25:35;23.60;99.90
31387;DHT22;69978;50.096;8.448;2023-09-18T15:28:04;23.60;99.90
31387;DHT22;69978;50.096;8.448;2023-09-18T15:30:31;23.50;99.90
31387;DHT22;69978;50.096;8.448;2023-09-18T15:32:56;23.50;99.90
31387;DHT22;69978;50.096;8.448;2023-09-18T15:35:23;23.50;99.90
31387;DHT22;69978;50.096;8.448;2023-09-18T15:37:49;23.60;99.90
31387;DHT22;69978;50.096;8.448;2023-09-18T15:40:15;23.60;99.90
31387;DHT22;69978;50.096;8.448;2023-09-18T15:42:43;23.70;99.90
31387;DHT22;69978;50.096;8.448;2023-09-18T15:45:10;23.70;99.90
31387;DHT22;69978;50.096;8.448;2023-09-18T15:47:37;23.70;99.90
31387;DHT22;69978;50.096;8.448;2023-09-18T15:50:04;23.70;99.90
31387;DHT22;69978;50.096;8.448;2023-09-18T15:52:30;23.70;99.90